createdAt,value
2017-11-23T00:00:48.481Z,0
2017-11-23T00:01:48.513Z,0
2017-11-23T00:02:48.504Z,0
2017-11-23T00:03:48.483Z,0
2017-11-23T00:04:48.485Z,0
2017-11-23T00:05:48.457Z,0
2017-11-23T00:06:48.474Z,3.9
2017-11-23T00:07:48.472Z,1.8
2017-11-23T00:08:48.491Z,0
2017-11-23T00:09:48.528Z,0
2017-11-23T00:10:48.474Z,0
2017-11-23T00:11:48.460Z,1.8
2017-11-23T00:12:48.464Z,3.9
2017-11-23T00:13:48.535Z,1.8
2017-11-23T00:14:48.509Z,0
2017-11-23T00:15:48.488Z,0
2017-11-23T00:16:48.467Z,0
2017-11-23T00:17:48.468Z,0
2017-11-23T00:18:49.160Z,0
2017-11-23T00:19:48.512Z,0
2017-11-23T00:20:48.471Z,0
2017-11-23T00:21:48.482Z,0
2017-11-23T00:22:48.533Z,0
2017-11-23T00:23:48.545Z,0
2017-11-23T00:24:48.487Z,0
2017-11-23T00:25:48.474Z,0
2017-11-23T00:26:48.474Z,0
2017-11-23T00:27:48.480Z,0
2017-11-23T00:28:48.590Z,0
2017-11-23T00:29:48.475Z,0
2017-11-23T00:30:48.469Z,0
2017-11-23T00:31:48.477Z,0
2017-11-23T00:32:48.538Z,0
2017-11-23T00:33:49.478Z,0
2017-11-23T00:34:48.472Z,0
2017-11-23T00:35:48.484Z,0
2017-11-23T00:36:48.517Z,0
2017-11-23T00:37:48.477Z,0
2017-11-23T00:38:48.525Z,0
2017-11-23T00:39:48.517Z,0
2017-11-23T00:40:48.484Z,0
2017-11-23T00:41:48.454Z,0
2017-11-23T00:42:48.466Z,0
2017-11-23T00:43:48.641Z,0
2017-11-23T00:44:48.468Z,0
2017-11-23T00:45:48.480Z,0
2017-11-23T00:46:48.462Z,0
2017-11-23T00:47:48.477Z,0
2017-11-23T00:48:48.548Z,0
2017-11-23T00:49:48.507Z,0
2017-11-23T00:50:48.454Z,0
2017-11-23T00:51:48.487Z,0
2017-11-23T00:52:48.467Z,0
2017-11-23T00:53:48.557Z,0
2017-11-23T00:54:48.468Z,0
2017-11-23T00:55:48.470Z,0
2017-11-23T00:56:48.482Z,0
2017-11-23T00:57:48.450Z,0
2017-11-23T00:58:48.483Z,0
2017-11-23T00:59:48.801Z,0
2017-11-23T01:00:48.412Z,0
2017-11-23T01:01:48.474Z,0
2017-11-23T01:02:48.446Z,0
2017-11-23T01:03:48.506Z,0
2017-11-23T01:04:48.468Z,0
2017-11-23T01:05:48.496Z,0
2017-11-23T01:06:48.466Z,0
2017-11-23T01:07:48.464Z,0
2017-11-23T01:08:48.541Z,0
2017-11-23T01:09:48.433Z,0
2017-11-23T01:10:48.430Z,0
2017-11-23T01:11:48.498Z,0
2017-11-23T01:12:48.444Z,0
2017-11-23T01:13:48.473Z,0
2017-11-23T01:14:48.470Z,0
2017-11-23T01:15:48.433Z,0
2017-11-23T01:16:48.438Z,0
2017-11-23T01:17:48.466Z,0
2017-11-23T01:18:48.447Z,0
2017-11-23T01:19:48.453Z,1.8
2017-11-23T01:20:48.445Z,0
2017-11-23T01:21:48.496Z,3.9
2017-11-23T01:22:48.427Z,0
2017-11-23T01:23:48.420Z,0
2017-11-23T01:24:48.453Z,0
2017-11-23T01:25:48.447Z,0
2017-11-23T01:26:48.407Z,3.9
2017-11-23T01:27:48.427Z,0
2017-11-23T01:28:48.461Z,0
2017-11-23T01:29:48.466Z,0
2017-11-23T01:30:48.459Z,1.8
2017-11-23T01:31:48.422Z,3.9
2017-11-23T01:32:48.424Z,3.9
2017-11-23T01:33:48.473Z,0
2017-11-23T01:34:48.479Z,3.9
2017-11-23T01:35:48.418Z,3.9
2017-11-23T01:36:48.475Z,3.9
2017-11-23T01:37:48.395Z,6.6
2017-11-23T01:38:48.422Z,1.8
2017-11-23T01:39:48.536Z,0
2017-11-23T01:40:48.436Z,3.9
2017-11-23T01:41:48.399Z,1.8
2017-11-23T01:42:48.447Z,3.9
2017-11-23T01:43:48.431Z,0
2017-11-23T01:44:48.502Z,3.9
2017-11-23T01:45:48.434Z,3.9
2017-11-23T01:46:48.467Z,3.9
2017-11-23T01:47:48.434Z,1.8
2017-11-23T01:48:48.409Z,3.9
2017-11-23T01:49:48.517Z,0
2017-11-23T01:50:48.406Z,1.8
2017-11-23T01:51:48.434Z,0
2017-11-23T01:52:48.489Z,1.8
2017-11-23T01:53:48.459Z,0
2017-11-23T01:54:48.507Z,0
2017-11-23T01:55:48.479Z,0
2017-11-23T01:56:48.458Z,1.8
2017-11-23T01:57:48.407Z,3.9
2017-11-23T01:58:48.504Z,0
2017-11-23T01:59:48.465Z,1.8
2017-11-23T02:00:48.404Z,0
2017-11-23T02:05:48.432Z,3.9
2017-11-23T02:06:48.431Z,0
2017-11-23T02:07:48.456Z,12.4
2017-11-23T02:08:48.428Z,0
2017-11-23T02:09:48.415Z,3.9
2017-11-23T02:10:48.446Z,0
2017-11-23T02:11:48.415Z,3.9
2017-11-23T02:12:48.419Z,3.9
2017-11-23T02:13:48.449Z,0
2017-11-23T02:14:48.421Z,1.8
2017-11-23T02:15:48.407Z,1.8
2017-11-23T02:16:48.431Z,0
2017-11-23T02:17:48.425Z,0
2017-11-23T02:18:48.421Z,1.8
2017-11-23T02:19:48.434Z,0
2017-11-23T02:25:11.113Z,1.8
2017-11-23T02:25:48.399Z,0
2017-11-23T02:26:48.436Z,1.8
2017-11-23T02:27:48.418Z,0
2017-11-23T02:28:48.403Z,9.5
2017-11-23T02:29:48.454Z,0
2017-11-23T02:30:48.465Z,0
2017-11-23T02:31:48.375Z,0
2017-11-23T02:32:48.434Z,0
2017-11-23T02:33:48.399Z,0
2017-11-23T02:34:48.374Z,0
2017-11-23T02:35:48.535Z,0
2017-11-23T02:36:48.437Z,0
2017-11-23T02:37:48.396Z,1.8
2017-11-23T02:38:48.441Z,1.8
2017-11-23T02:39:48.445Z,0
2017-11-23T02:40:48.451Z,6.6
2017-11-23T02:41:48.411Z,0
2017-11-23T02:42:48.447Z,1.8
2017-11-23T02:43:48.384Z,3.9
2017-11-23T02:44:48.375Z,1.8
2017-11-23T02:45:48.520Z,1.8
2017-11-23T02:46:49.362Z,0
2017-11-23T02:47:48.400Z,0
2017-11-23T02:48:48.408Z,1.8
2017-11-23T02:49:48.398Z,0
2017-11-23T02:50:48.585Z,1.8
2017-11-23T02:51:48.455Z,6.6
2017-11-23T02:52:48.421Z,0
2017-11-23T02:53:48.401Z,1.8
2017-11-23T02:54:48.425Z,0
2017-11-23T02:55:48.441Z,0
2017-11-23T02:56:48.443Z,0
2017-11-23T02:57:48.354Z,1.8
2017-11-23T02:58:48.399Z,1.8
2017-11-23T02:59:48.451Z,1.8
2017-11-23T03:00:48.473Z,0
2017-11-23T03:01:48.397Z,1.8
2017-11-23T03:02:48.439Z,0
2017-11-23T03:03:48.402Z,0
2017-11-23T03:04:48.390Z,0
2017-11-23T03:05:49.110Z,1.8
2017-11-23T03:06:48.410Z,0
2017-11-23T03:07:48.405Z,0
2017-11-23T03:08:48.405Z,1.8
2017-11-23T03:09:48.388Z,1.8
2017-11-23T03:10:48.450Z,1.8
2017-11-23T03:11:48.400Z,0
2017-11-23T03:12:48.414Z,3.9
2017-11-23T03:13:48.368Z,3.9
2017-11-23T03:14:49.029Z,0
2017-11-23T03:15:48.447Z,1.8
2017-11-23T03:16:48.414Z,3.9
2017-11-23T03:17:48.435Z,0
2017-11-23T03:18:48.423Z,1.8
2017-11-23T03:20:22.979Z,0
2017-11-23T03:20:48.422Z,3.9
2017-11-23T03:21:48.365Z,12.4
2017-11-23T03:22:48.394Z,1.8
2017-11-23T03:23:49.391Z,0
2017-11-23T03:24:48.426Z,6.6
2017-11-23T03:25:48.355Z,0
2017-11-23T03:26:48.359Z,0
2017-11-23T03:27:48.421Z,1.8
2017-11-23T03:28:48.359Z,3.9
2017-11-23T03:29:48.355Z,0
2017-11-23T03:30:48.413Z,6.6
2017-11-23T03:31:48.439Z,0
2017-11-23T03:32:48.472Z,0
2017-11-23T03:33:48.377Z,0
2017-11-23T03:34:48.416Z,0
2017-11-23T03:35:48.365Z,6.6
2017-11-23T03:36:48.361Z,0
2017-11-23T03:37:48.419Z,1.8
2017-11-23T03:38:48.363Z,6.6
2017-11-23T03:39:48.373Z,3.9
2017-11-23T03:40:48.412Z,3.9
2017-11-23T03:41:48.379Z,0
2017-11-23T03:42:48.375Z,6.6
2017-11-23T03:43:48.357Z,1.8
2017-11-23T03:44:48.420Z,1.8
2017-11-23T03:45:48.403Z,0
2017-11-23T03:46:48.362Z,3.9
2017-11-23T03:47:48.356Z,0
2017-11-23T03:48:48.391Z,3.9
2017-11-23T03:49:48.389Z,1.8
2017-11-23T03:50:48.375Z,1.8
2017-11-23T03:51:48.344Z,0
2017-11-23T03:52:48.398Z,0
2017-11-23T03:53:48.359Z,3.9
2017-11-23T03:54:48.360Z,3.9
2017-11-23T03:55:48.377Z,3.9
2017-11-23T03:56:48.432Z,1.8
2017-11-23T03:57:48.423Z,0
2017-11-23T03:58:48.391Z,1.8
2017-11-23T03:59:48.395Z,1.8
2017-11-23T04:00:48.351Z,0
2017-11-23T04:01:48.431Z,3.9
2017-11-23T04:02:48.409Z,0
2017-11-23T04:03:48.363Z,1.8
2017-11-23T04:04:48.431Z,9.5
2017-11-23T04:05:48.376Z,1.8
2017-11-23T04:06:48.451Z,3.9
2017-11-23T04:07:48.376Z,1.8
2017-11-23T04:08:48.361Z,0
2017-11-23T04:09:48.392Z,12.4
2017-11-23T04:10:48.363Z,9.5
2017-11-23T04:11:48.413Z,6.6
2017-11-23T04:12:49.104Z,3.9
2017-11-23T04:13:48.329Z,0
2017-11-23T04:14:48.377Z,3.9
2017-11-23T04:15:48.991Z,3.9
2017-11-23T04:16:48.406Z,0
2017-11-23T04:17:48.358Z,3.9
2017-11-23T04:18:48.386Z,12.4
2017-11-23T04:19:48.435Z,3.9
2017-11-23T04:20:48.349Z,12.4
2017-11-23T04:21:48.425Z,3.9
2017-11-23T04:22:48.341Z,6.6
2017-11-23T04:23:48.413Z,3.9
2017-11-23T04:24:48.326Z,0
2017-11-23T04:25:48.369Z,1.8
2017-11-23T04:26:48.457Z,0
2017-11-23T04:27:48.341Z,1.8
2017-11-23T04:28:48.356Z,3.9
2017-11-23T04:29:48.333Z,0
2017-11-23T04:30:48.338Z,1.8
2017-11-23T04:31:48.453Z,1.8
2017-11-23T04:32:48.328Z,1.8
2017-11-23T04:33:48.352Z,0
2017-11-23T04:34:48.373Z,3.9
2017-11-23T04:35:48.362Z,9.5
2017-11-23T04:36:48.391Z,9.5
2017-11-23T04:37:48.363Z,6.6
2017-11-23T04:38:48.429Z,0
2017-11-23T04:39:48.383Z,1.8
2017-11-23T04:40:48.334Z,0
2017-11-23T04:41:48.360Z,0
2017-11-23T04:42:48.406Z,9.5
2017-11-23T04:43:48.336Z,1.8
2017-11-23T04:44:48.344Z,1.8
2017-11-23T04:45:48.848Z,1.8
2017-11-23T04:46:48.444Z,3.9
2017-11-23T04:47:48.356Z,1.8
2017-11-23T04:48:48.343Z,0
2017-11-23T04:49:48.332Z,0
2017-11-23T04:50:48.389Z,1.8
2017-11-23T04:51:48.414Z,3.9
2017-11-23T04:52:48.355Z,1.8
2017-11-23T04:53:48.340Z,3.9
2017-11-23T04:54:48.371Z,3.9
2017-11-23T04:55:48.338Z,3.9
2017-11-23T04:56:48.395Z,12.4
2017-11-23T04:59:51.585Z,9.5
2017-11-23T05:00:51.589Z,9.5
2017-11-23T05:01:51.638Z,0
2017-11-23T05:02:51.623Z,3.9
2017-11-23T05:03:51.544Z,3.9
2017-11-23T05:04:51.540Z,3.9
2017-11-23T05:05:51.593Z,0
2017-11-23T05:06:51.635Z,0
2017-11-23T05:07:51.568Z,0
2017-11-23T05:08:51.609Z,0
2017-11-23T05:09:51.569Z,3.9
2017-11-23T05:10:51.575Z,3.9
2017-11-23T05:11:51.654Z,6.6
2017-11-23T05:12:51.541Z,1.8
2017-11-23T05:13:51.573Z,15.4
2017-11-23T05:14:51.587Z,3.9
2017-11-23T05:15:51.563Z,3.9
2017-11-23T05:16:51.672Z,6.6
2017-11-23T05:17:51.568Z,0
2017-11-23T05:18:51.557Z,0
2017-11-23T05:19:51.625Z,3.9
2017-11-23T05:20:51.570Z,0
2017-11-23T05:21:51.672Z,0
2017-11-23T05:23:26.298Z,0
2017-11-23T05:23:51.563Z,0
2017-11-23T05:24:51.577Z,1.8
2017-11-23T05:25:51.595Z,6.6
2017-11-23T05:26:51.616Z,1.8
2017-11-23T05:27:51.549Z,1.8
2017-11-23T05:28:51.530Z,9.5
2017-11-23T05:29:51.542Z,1.8
2017-11-23T05:30:51.611Z,1.8
2017-11-23T05:31:51.555Z,0
2017-11-23T05:32:51.552Z,0
2017-11-23T05:33:51.588Z,6.6
2017-11-23T05:34:51.563Z,1.8
2017-11-23T05:35:51.596Z,0
2017-11-23T05:36:51.588Z,3.9
2017-11-23T05:37:51.536Z,3.9
2017-11-23T05:38:51.569Z,1.8
2017-11-23T05:39:51.539Z,6.6
2017-11-23T05:40:51.562Z,0
2017-11-23T05:41:51.582Z,0
2017-11-23T05:42:51.583Z,1.8
2017-11-23T05:43:52.090Z,1.8
2017-11-23T05:44:51.528Z,0
2017-11-23T05:45:51.596Z,1.8
2017-11-23T05:46:51.578Z,1.8
2017-11-23T05:47:51.612Z,1.8
2017-11-23T05:48:51.569Z,0
2017-11-23T05:49:51.586Z,0
2017-11-23T05:50:51.525Z,0
2017-11-23T05:51:51.606Z,0
2017-11-23T05:52:51.614Z,0
2017-11-23T05:53:51.530Z,0
2017-11-23T05:54:51.560Z,0
2017-11-23T05:55:51.595Z,0
2017-11-23T05:56:51.539Z,0
2017-11-23T05:57:51.559Z,0
2017-11-23T05:58:51.541Z,0
2017-11-23T05:59:51.563Z,0
2017-11-23T06:00:51.542Z,0
2017-11-23T06:01:51.522Z,0
2017-11-23T06:02:51.657Z,0
2017-11-23T06:03:51.582Z,0
2017-11-23T06:04:51.553Z,0
2017-11-23T06:05:51.568Z,0
2017-11-23T06:06:51.545Z,0
2017-11-23T06:07:51.611Z,0
2017-11-23T06:08:51.504Z,0
2017-11-23T06:09:51.523Z,0
2017-11-23T06:10:51.540Z,0
2017-11-23T06:11:51.562Z,1.8
2017-11-23T06:12:51.636Z,0
2017-11-23T06:13:51.520Z,1.8
2017-11-23T06:14:51.530Z,9.5
2017-11-23T06:15:51.581Z,0
2017-11-23T06:16:51.573Z,1.8
2017-11-23T06:17:51.638Z,3.9
2017-11-23T06:18:51.511Z,0
2017-11-23T06:19:51.525Z,1.8
2017-11-23T06:20:51.549Z,6.6
2017-11-23T06:21:51.496Z,0
2017-11-23T06:22:51.600Z,0
2017-11-23T06:23:51.492Z,3.9
2017-11-23T06:24:51.576Z,0
2017-11-23T06:25:51.523Z,1.8
2017-11-23T06:26:51.547Z,1.8
2017-11-23T06:27:51.616Z,3.9
2017-11-23T06:28:51.512Z,1.8
2017-11-23T06:29:51.516Z,0
2017-11-23T06:30:51.504Z,0
2017-11-23T06:31:51.537Z,0
2017-11-23T06:32:51.557Z,0
2017-11-23T06:33:51.536Z,0
2017-11-23T06:34:51.610Z,0
2017-11-23T06:35:51.520Z,0
2017-11-23T06:36:51.506Z,0
2017-11-23T06:37:51.605Z,0
2017-11-23T06:38:51.553Z,0
2017-11-23T06:39:51.499Z,0
2017-11-23T06:40:51.533Z,0
2017-11-23T06:41:51.563Z,0
2017-11-23T06:42:51.568Z,0
2017-11-23T06:43:51.500Z,0
2017-11-23T06:44:51.513Z,0
2017-11-23T06:45:51.544Z,0
2017-11-23T06:46:51.529Z,0
2017-11-23T06:47:51.592Z,0
2017-11-23T06:48:51.551Z,1.8
2017-11-23T06:49:51.483Z,1.8
2017-11-23T06:50:51.488Z,0
2017-11-23T06:51:51.568Z,1.8
2017-11-23T06:52:51.548Z,0
2017-11-23T06:53:51.514Z,0
2017-11-23T06:54:51.518Z,1.8
2017-11-23T06:55:51.546Z,3.9
2017-11-23T06:56:51.513Z,0
2017-11-23T06:57:51.592Z,1.8
2017-11-23T06:58:51.533Z,0
2017-11-23T06:59:51.540Z,0
2017-11-23T07:00:51.485Z,1.8
2017-11-23T07:01:51.513Z,0
2017-11-23T07:02:51.621Z,1.8
2017-11-23T07:03:51.538Z,1.8
2017-11-23T07:04:51.535Z,1.8
2017-11-23T07:05:51.559Z,0
2017-11-23T07:06:51.498Z,0
2017-11-23T07:07:51.561Z,0
2017-11-23T07:08:51.505Z,0
2017-11-23T07:09:51.522Z,0
2017-11-23T07:10:51.568Z,0
2017-11-23T07:11:51.527Z,0
2017-11-23T07:12:51.555Z,0
2017-11-23T07:13:51.490Z,0
2017-11-23T07:14:51.555Z,0
2017-11-23T07:15:51.535Z,0
2017-11-23T07:16:51.564Z,0
2017-11-23T07:17:51.577Z,1.8
2017-11-23T07:18:51.528Z,0
2017-11-23T07:19:51.506Z,0
2017-11-23T07:20:51.520Z,9.5
2017-11-23T07:21:51.489Z,3.9
2017-11-23T07:22:51.616Z,3.9
2017-11-23T07:23:51.506Z,12.4
2017-11-23T07:24:51.524Z,1.8
2017-11-23T07:25:51.603Z,0
2017-11-23T07:26:51.500Z,0
2017-11-23T07:27:51.621Z,6.6
2017-11-23T07:28:51.509Z,9.5
2017-11-23T07:29:51.488Z,6.6
2017-11-23T07:30:51.509Z,6.6
2017-11-23T07:31:51.510Z,18.3
2017-11-23T07:32:51.570Z,3.9
2017-11-23T07:33:51.491Z,6.6
2017-11-23T07:34:51.515Z,3.9
2017-11-23T07:35:51.509Z,6.6
2017-11-23T07:36:51.477Z,0
2017-11-23T07:37:51.479Z,0
2017-11-23T07:38:51.533Z,21.3
2017-11-23T07:39:51.483Z,0
2017-11-23T07:40:51.516Z,0
2017-11-23T07:41:51.520Z,3.9
2017-11-23T07:42:51.497Z,0
2017-11-23T07:43:51.533Z,6.6
2017-11-23T07:44:51.478Z,3.9
2017-11-23T07:45:51.500Z,6.6
2017-11-23T07:46:51.487Z,3.9
2017-11-23T07:47:51.499Z,3.9
2017-11-23T07:48:51.527Z,0
2017-11-23T07:49:51.486Z,1.8
2017-11-23T07:50:51.494Z,3.9
2017-11-23T07:51:51.491Z,0
2017-11-23T07:52:51.549Z,9.5
2017-11-23T07:53:51.488Z,6.6
2017-11-23T07:55:26.127Z,1.8
2017-11-23T07:55:51.505Z,3.9
2017-11-23T07:56:51.473Z,9.5
2017-11-23T07:57:51.499Z,1.8
2017-11-23T07:58:51.577Z,0
2017-11-23T07:59:51.474Z,0
2017-11-23T08:00:51.486Z,1.8
2017-11-23T08:01:51.486Z,0
2017-11-23T08:02:51.500Z,3.9
2017-11-23T08:03:51.512Z,1.8
2017-11-23T08:04:51.497Z,0
2017-11-23T08:05:51.491Z,0
2017-11-23T08:06:51.492Z,0
2017-11-23T08:07:51.496Z,0
2017-11-23T08:08:51.544Z,0
2017-11-23T08:09:51.474Z,0
2017-11-23T08:10:52.137Z,1.8
2017-11-23T08:11:51.530Z,0
2017-11-23T08:12:51.476Z,0
2017-11-23T08:13:51.559Z,0
2017-11-23T08:14:51.520Z,0
2017-11-23T08:15:51.471Z,0
2017-11-23T08:16:51.451Z,0
2017-11-23T08:17:51.496Z,0
2017-11-23T08:18:51.694Z,0
2017-11-23T08:19:51.494Z,0
2017-11-23T08:20:51.474Z,0
2017-11-23T08:21:51.550Z,0
2017-11-23T08:22:51.469Z,0
2017-11-23T08:23:51.554Z,0
2017-11-23T08:24:51.482Z,1.8
2017-11-23T08:25:51.477Z,0
2017-11-23T08:26:51.481Z,0
2017-11-23T08:27:51.466Z,0
2017-11-23T08:28:51.574Z,0
2017-11-23T08:29:51.478Z,0
2017-11-23T08:30:51.514Z,0
2017-11-23T08:31:51.480Z,0
2017-11-23T08:32:51.457Z,0
2017-11-23T08:33:51.540Z,0
2017-11-23T08:34:51.512Z,1.8
2017-11-23T08:35:51.577Z,0
2017-11-23T08:36:51.468Z,1.8
2017-11-23T08:37:51.471Z,9.5
2017-11-23T08:38:51.527Z,1.8
2017-11-23T08:39:51.515Z,0
2017-11-23T08:40:51.458Z,0
2017-11-23T08:41:51.512Z,0
2017-11-23T08:42:51.433Z,0
2017-11-23T08:43:51.568Z,0
2017-11-23T08:44:51.447Z,0
2017-11-23T08:45:51.523Z,6.6
2017-11-23T08:46:51.502Z,0
2017-11-23T08:47:51.494Z,0
2017-11-23T08:48:51.551Z,3.9
2017-11-23T08:49:51.499Z,1.8
2017-11-23T08:50:51.501Z,1.8
2017-11-23T08:51:51.490Z,0
2017-11-23T08:52:51.468Z,1.8
2017-11-23T08:53:51.507Z,0
2017-11-23T08:54:51.493Z,3.9
2017-11-23T08:55:51.459Z,9.5
2017-11-23T08:56:51.470Z,0
2017-11-23T08:57:51.465Z,1.8
2017-11-23T08:58:51.541Z,0
2017-11-23T08:59:52.167Z,0
2017-11-23T09:00:51.470Z,0
2017-11-23T09:01:51.490Z,3.9
2017-11-23T09:02:51.457Z,0
2017-11-23T09:03:51.547Z,9.5
2017-11-23T09:04:51.471Z,1.8
2017-11-23T09:05:51.489Z,3.9
2017-11-23T09:06:51.525Z,0
2017-11-23T09:07:51.472Z,1.8
2017-11-23T09:08:51.542Z,0
2017-11-23T09:09:51.495Z,0
2017-11-23T09:10:51.456Z,0
2017-11-23T09:11:51.456Z,1.8
2017-11-23T09:12:51.508Z,3.9
2017-11-23T09:13:51.525Z,0
2017-11-23T09:14:51.474Z,0
2017-11-23T09:15:51.468Z,3.9
2017-11-23T09:16:51.507Z,0
2017-11-23T09:17:51.457Z,1.8
2017-11-23T09:18:51.512Z,0
2017-11-23T09:19:51.497Z,3.9
2017-11-23T09:20:51.452Z,0
2017-11-23T09:21:51.444Z,0
2017-11-23T09:22:51.497Z,0
2017-11-23T09:23:51.526Z,6.6
2017-11-23T09:24:51.499Z,0
2017-11-23T09:25:51.480Z,1.8
2017-11-23T09:26:51.519Z,0
2017-11-23T09:27:51.460Z,0
2017-11-23T09:28:51.536Z,0
2017-11-23T09:29:51.507Z,3.9
2017-11-23T09:30:51.494Z,1.8
2017-11-23T09:31:51.462Z,1.8
2017-11-23T09:32:51.486Z,3.9
2017-11-23T09:33:51.560Z,1.8
2017-11-23T09:34:51.449Z,0
2017-11-23T09:35:51.480Z,3.9
2017-11-23T09:36:51.518Z,3.9
2017-11-23T09:37:51.483Z,1.8
2017-11-23T09:38:51.552Z,1.8
2017-11-23T09:39:51.513Z,3.9
2017-11-23T09:40:51.443Z,6.6
2017-11-23T09:41:51.508Z,1.8
2017-11-23T09:42:51.507Z,0
2017-11-23T09:43:51.504Z,6.6
2017-11-23T09:44:51.458Z,3.9
2017-11-23T09:45:51.497Z,6.6
2017-11-23T09:46:51.487Z,1.8
2017-11-23T09:47:51.498Z,6.6
2017-11-23T09:48:51.499Z,12.4
2017-11-23T09:49:51.461Z,3.9
2017-11-23T09:50:51.512Z,0
2017-11-23T09:51:51.425Z,3.9
2017-11-23T09:52:51.466Z,1.8
2017-11-23T09:53:51.532Z,3.9
2017-11-23T09:54:51.528Z,1.8
2017-11-23T09:55:51.435Z,6.6
2017-11-23T09:56:51.457Z,1.8
2017-11-23T09:57:51.484Z,1.8
2017-11-23T09:58:51.529Z,1.8
2017-11-23T09:59:51.494Z,0
2017-11-23T10:00:51.466Z,0
2017-11-23T10:01:51.522Z,0
2017-11-23T10:02:51.529Z,0
2017-11-23T10:03:51.537Z,0
2017-11-23T10:04:51.454Z,3.9
2017-11-23T10:05:51.459Z,1.8
2017-11-23T10:06:51.481Z,3.9
2017-11-23T10:07:51.459Z,6.6
2017-11-23T10:08:51.498Z,3.9
2017-11-23T10:09:51.455Z,3.9
2017-11-23T10:10:51.441Z,1.8
2017-11-23T10:11:51.438Z,3.9
2017-11-23T10:12:51.440Z,6.6
2017-11-23T10:13:51.509Z,6.6
2017-11-23T10:14:51.451Z,3.9
2017-11-23T10:15:51.475Z,3.9
2017-11-23T10:16:51.466Z,9.5
2017-11-23T10:17:51.517Z,3.9
2017-11-23T10:18:51.427Z,6.6
2017-11-23T10:19:51.463Z,3.9
2017-11-23T10:20:51.481Z,3.9
2017-11-23T10:21:51.417Z,15.4
2017-11-23T10:22:51.516Z,15.4
2017-11-23T10:23:51.461Z,6.6
2017-11-23T10:24:51.478Z,3.9
2017-11-23T10:25:51.435Z,6.6
2017-11-23T10:26:51.445Z,6.6
2017-11-23T10:27:51.500Z,6.6
2017-11-23T10:28:51.437Z,3.9
2017-11-23T10:29:51.436Z,15.4
2017-11-23T10:30:51.483Z,1.8
2017-11-23T10:31:51.500Z,0
2017-11-23T10:32:51.440Z,1.8
2017-11-23T10:33:51.462Z,1.8
2017-11-23T10:34:51.450Z,0
2017-11-23T10:35:51.417Z,0
2017-11-23T10:36:51.458Z,0
2017-11-23T10:37:51.443Z,3.9
2017-11-23T10:38:51.458Z,1.8
2017-11-23T10:39:51.428Z,0
2017-11-23T10:40:51.463Z,0
2017-11-23T10:41:51.466Z,1.8
2017-11-23T10:42:51.453Z,0
2017-11-23T10:43:51.466Z,0
2017-11-23T10:44:51.432Z,0
2017-11-23T10:45:51.465Z,0
2017-11-23T10:46:51.443Z,0
2017-11-23T10:47:51.429Z,0
2017-11-23T10:48:51.493Z,0
2017-11-23T10:49:51.481Z,0
2017-11-23T10:50:51.461Z,3.9
2017-11-23T10:51:51.443Z,0
2017-11-23T10:52:51.486Z,3.9
2017-11-23T10:53:51.447Z,3.9
2017-11-23T10:54:51.511Z,6.6
2017-11-23T10:55:51.424Z,3.9
2017-11-23T10:56:51.454Z,0
2017-11-23T10:57:51.467Z,0
2017-11-23T10:58:51.454Z,0
2017-11-23T10:59:51.479Z,0
2017-11-23T11:00:51.476Z,0
2017-11-23T11:01:52.127Z,0
2017-11-23T11:07:14.083Z,0
2017-11-23T11:07:51.423Z,0
2017-11-23T11:08:51.454Z,1.8
2017-11-23T11:09:51.483Z,1.8
2017-11-23T11:10:51.486Z,0
2017-11-23T11:11:51.409Z,0
2017-11-23T11:12:51.475Z,3.9
2017-11-23T11:13:51.464Z,0
2017-11-23T11:14:51.569Z,0
2017-11-23T11:15:51.441Z,0
2017-11-23T11:16:51.460Z,0
2017-11-23T11:17:51.430Z,0
2017-11-23T11:18:51.429Z,0
2017-11-23T11:19:51.550Z,3.9
2017-11-23T11:20:51.425Z,3.9
2017-11-23T11:21:51.441Z,3.9
2017-11-23T11:22:51.437Z,3.9
2017-11-23T11:23:51.427Z,15.4
2017-11-23T11:24:51.503Z,3.9
2017-11-23T11:25:51.418Z,0
2017-11-23T11:26:51.427Z,0
2017-11-23T11:27:51.459Z,0
2017-11-23T11:28:51.441Z,0
2017-11-23T11:29:51.487Z,0
2017-11-23T11:30:51.466Z,0
2017-11-23T11:31:51.484Z,3.9
2017-11-23T11:32:51.448Z,0
2017-11-23T11:33:51.436Z,9.5
2017-11-23T11:34:51.534Z,3.9
2017-11-23T11:35:51.439Z,0
2017-11-23T11:36:51.466Z,6.6
2017-11-23T11:37:51.418Z,0
2017-11-23T11:38:51.428Z,9.5
2017-11-23T11:39:51.555Z,12.4
2017-11-23T11:40:51.450Z,3.9
2017-11-23T11:41:51.436Z,1.8
2017-11-23T11:42:51.448Z,3.9
2017-11-23T11:43:51.415Z,1.8
2017-11-23T11:44:51.516Z,0
2017-11-23T11:45:51.430Z,9.5
2017-11-23T11:46:51.424Z,1.8
2017-11-23T11:47:51.419Z,6.6
2017-11-23T11:48:51.433Z,3.9
2017-11-23T11:49:51.474Z,0
2017-11-23T11:50:51.474Z,3.9
2017-11-23T11:51:51.433Z,0
2017-11-23T11:52:51.437Z,0
2017-11-23T11:53:51.402Z,0
2017-11-23T11:54:51.482Z,3.9
2017-11-23T11:55:52.109Z,1.8
2017-11-23T11:56:51.447Z,1.8
2017-11-23T11:57:51.420Z,1.8
2017-11-23T11:58:51.423Z,0
2017-11-23T11:59:51.479Z,1.8
2017-11-23T12:00:51.454Z,0
2017-11-23T12:01:51.420Z,6.6
2017-11-23T12:02:51.455Z,1.8
2017-11-23T12:03:51.462Z,0
2017-11-23T12:04:51.555Z,3.9
2017-11-23T12:05:51.415Z,3.9
2017-11-23T12:06:51.393Z,0
2017-11-23T12:07:51.432Z,6.6
2017-11-23T12:08:51.434Z,1.8
2017-11-23T12:09:51.529Z,1.8
2017-11-23T12:10:51.432Z,3.9
2017-11-23T12:11:51.458Z,0
2017-11-23T12:12:51.442Z,0
2017-11-23T12:13:51.916Z,6.6
2017-11-23T12:14:51.500Z,0
2017-11-23T12:15:51.436Z,0
2017-11-23T12:16:51.487Z,9.5
2017-11-23T12:17:51.439Z,15.4
2017-11-23T12:18:51.482Z,3.9
2017-11-23T12:19:51.431Z,6.6
2017-11-23T12:20:51.432Z,3.9
2017-11-23T12:21:51.408Z,12.4
2017-11-23T12:22:51.420Z,21.3
2017-11-23T12:23:51.492Z,12.4
2017-11-23T12:24:51.384Z,6.6
2017-11-23T12:25:51.418Z,6.6
2017-11-23T12:26:51.418Z,6.6
2017-11-23T12:27:51.407Z,3.9
2017-11-23T12:28:51.419Z,21.3
2017-11-23T12:29:51.426Z,9.5
2017-11-23T12:30:51.451Z,12.4
2017-11-23T12:31:51.494Z,30.3
2017-11-23T12:32:51.435Z,24.3
2017-11-23T12:33:51.436Z,9.5
2017-11-23T12:34:51.469Z,9.5
2017-11-23T12:36:14.862Z,27.3
2017-11-23T12:37:14.905Z,9.5
2017-11-23T12:38:14.861Z,24.3
2017-11-23T12:39:14.884Z,15.4
2017-11-23T12:40:14.919Z,12.4
2017-11-23T12:41:14.880Z,18.3
2017-11-23T12:42:14.849Z,15.4
2017-11-23T12:43:14.928Z,21.3
2017-11-23T12:44:14.871Z,15.4
2017-11-23T12:45:14.985Z,15.4
2017-11-23T12:46:15.672Z,18.3
2017-11-23T12:47:14.920Z,27.3
2017-11-23T12:48:14.874Z,33.3
2017-11-23T12:49:14.900Z,21.3
2017-11-23T12:50:14.919Z,6.6
2017-11-23T12:51:14.924Z,12.4
2017-11-23T12:52:15.525Z,36.3
2017-11-23T12:53:14.865Z,21.3
2017-11-23T12:54:14.852Z,39.3
2017-11-23T12:55:14.925Z,21.3
2017-11-23T12:56:15.483Z,21.3
2017-11-23T12:57:14.854Z,24.3
2017-11-23T12:58:14.881Z,18.3
2017-11-23T12:59:14.846Z,12.4
2017-11-23T13:00:14.909Z,36.3
2017-11-23T13:01:14.886Z,12.4
2017-11-23T13:02:14.870Z,39.3
2017-11-23T13:03:14.907Z,18.3
2017-11-23T13:04:14.890Z,12.4
2017-11-23T13:05:14.955Z,27.3
2017-11-23T13:06:14.884Z,15.4
2017-11-23T13:07:14.889Z,9.5
2017-11-23T13:08:14.879Z,33.3
2017-11-23T13:09:14.842Z,9.5
2017-11-23T13:10:14.957Z,18.3
2017-11-23T13:11:14.881Z,21.3
2017-11-23T13:12:14.906Z,27.3
2017-11-23T13:13:14.877Z,15.4
2017-11-23T13:14:14.906Z,21.3
2017-11-23T13:15:14.928Z,45.3
2017-11-23T13:16:14.913Z,30.3
2017-11-23T13:17:14.900Z,42.3
2017-11-23T13:18:14.904Z,12.4
2017-11-23T13:19:14.861Z,18.3
2017-11-23T13:20:14.901Z,15.4
2017-11-23T13:21:14.862Z,3.9
2017-11-23T13:22:14.854Z,36.3
2017-11-23T13:23:14.919Z,18.3
2017-11-23T13:24:14.915Z,21.3
2017-11-23T13:25:14.919Z,21.3
2017-11-23T13:26:14.916Z,27.3
2017-11-23T13:27:14.923Z,18.3
2017-11-23T13:28:14.880Z,12.4
2017-11-23T13:29:14.899Z,36.3
2017-11-23T13:30:14.928Z,15.4
2017-11-23T13:31:15.058Z,21.3
2017-11-23T13:32:14.861Z,27.3
2017-11-23T13:33:14.836Z,39.3
2017-11-23T13:34:14.866Z,24.3
2017-11-23T13:35:14.924Z,30.3
2017-11-23T13:36:14.846Z,27.3
2017-11-23T13:37:14.934Z,12.4
2017-11-23T13:38:14.896Z,21.3
2017-11-23T13:39:14.882Z,9.5
2017-11-23T13:40:14.926Z,36.3
2017-11-23T13:41:14.858Z,12.4
2017-11-23T13:42:14.853Z,21.3
2017-11-23T13:43:14.883Z,18.3
2017-11-23T13:44:14.858Z,18.3
2017-11-23T13:45:14.894Z,15.4
2017-11-23T13:46:14.869Z,36.3
2017-11-23T13:47:14.884Z,36.3
2017-11-23T13:48:14.896Z,60.3
2017-11-23T13:49:14.854Z,48.3
2017-11-23T13:50:14.969Z,24.3
2017-11-23T13:51:14.873Z,27.3
2017-11-23T13:52:14.893Z,33.3
2017-11-23T13:53:14.879Z,27.3
2017-11-23T13:54:14.837Z,12.4
2017-11-23T13:55:14.911Z,21.3
2017-11-23T13:56:15.893Z,18.3
2017-11-23T13:57:14.865Z,45.3
2017-11-23T13:58:14.862Z,18.3
2017-11-23T13:59:14.871Z,51.3
2017-11-23T14:00:14.893Z,27.3
2017-11-23T14:01:14.916Z,15.4
2017-11-23T14:02:14.842Z,48.3
2017-11-23T14:03:17.256Z,18.3
2017-11-23T14:04:16.245Z,30.3
2017-11-23T14:05:15.253Z,27.3
2017-11-23T14:06:14.986Z,36.3
2017-11-23T14:07:15.006Z,30.3
2017-11-23T14:08:14.933Z,12.4
2017-11-23T14:09:15.552Z,18.3
2017-11-23T14:10:15.068Z,27.3
2017-11-23T14:11:14.949Z,18.3
2017-11-23T14:12:14.910Z,12.4
2017-11-23T14:13:14.915Z,30.3
2017-11-23T14:14:14.962Z,27.3
2017-11-23T14:15:14.918Z,30.3
2017-11-23T14:16:14.877Z,33.3
2017-11-23T14:17:14.841Z,48.3
2017-11-23T14:18:14.851Z,24.3
2017-11-23T14:19:14.847Z,12.4
2017-11-23T14:20:14.971Z,12.4
2017-11-23T14:21:14.840Z,27.3
2017-11-23T14:22:14.837Z,33.3